sensor_id;sensor_type;location;lat;lon;timestamp;temperature;humidity
24518;DHT22;12678;51.336;12.406;2023-02-24T00:01:45;8.90;99.90
24518;DHT22;12678;51.336;12.406;2023-02-24T00:04:14;8.80;99.90
24518;DHT22;12678;51.336;12.406;2023-02-24T00:06:41;8.80;99.90
24518;DHT22;12678;51.336;12.406;2023-02-24T00:09:20;8.90;99.90
24518;DHT22;12678;51.336;12.406;2023-02-24T00:14:18;8.80;99.90
24518;DHT22;12678;51.336;12.406;2023-02-24T00:16:45;8.80;99.90
24518;DHT22;12678;51.336;12.406;2023-02-24T00:19:13;8.80;99.90
24518;DHT22;12678;51.336;12.406;2023-02-24T00:21:39;8.70;99.90
24518;DHT22;12678;51.336;12.406;2023-02-24T00:24:06;8.70;99.90
24518;DHT22;12678;51.336;12.406;2023-02-24T00:26:32;8.70;99.90
24518;DHT22;12678;51.336;12.406;2023-02-24T00:28:58;8.70;99.90
24518;DHT22;12678;51.336;12.406;2023-02-24T00:31:26;8.70;99.90
24518;DHT22;12678;51.336;12.406;2023-02-24T00:33:56;8.70;99.90
24518;DHT22;12678;51.336;12.406;2023-02-24T00:36:22;8.80;99.90
24518;DHT22;12678;51.336;12.406;2023-02-24T00:38:59;8.70;99.90
24518;DHT22;12678;51.336;12.406;2023-02-24T00:41:30;8.70;99.90
24518;DHT22;12678;51.336;12.406;2023-02-24T00:43:58;8.60;99.90
24518;DHT22;12678;51.336;12.406;2023-02-24T00:46:41;8.60;99.90
24518;DHT22;12678;51.336;12.406;2023-02-24T00:49:10;8.60;99.90
24518;DHT22;12678;51.336;12.406;2023-02-24T00:51:39;8.60;99.90
24518;DHT22;12678;51.336;12.406;2023-02-24T00:54:06;8.50;99.90
24518;DHT22;12678;51.336;12.406;2023-02-24T00:56:33;8.50;99.90
24518;DHT22;12678;51.336;12.406;2023-02-24T00:59:00;8.50;99.90
24518;DHT22;12678;51.336;12.406;2023-02-24T01:01:28;8.50;99.90
24518;DHT22;12678;51.336;12.406;2023-02-24T01:03:58;8.50;99.90
24518;DHT22;12678;51.336;12.406;2023-02-24T01:06:27;8.50;99.90
24518;DHT22;12678;51.336;12.406;2023-02-24T01:08:54;8.50;99.90
24518;DHT22;12678;51.336;12.406;2023-02-24T01:11:23;8.50;99.90
24518;DHT22;12678;51.336;12.406;2023-02-24T01:14:13;8.40;99.90
24518;DHT22;12678;51.336;12.406;2023-02-24T01:16:40;8.40;99.90
24518;DHT22;12678;51.336;12.406;2023-02-24T01:19:07;8.40;99.90
24518;DHT22;12678;51.336;12.406;2023-02-24T01:21:33;8.40;99.90
24518;DHT22;12678;51.336;12.406;2023-02-24T01:23:59;8.40;99.90
24518;DHT22;12678;51.336;12.406;2023-02-24T01:26:25;8.30;99.90
24518;DHT22;12678;51.336;12.406;2023-02-24T01:28:52;8.30;99.90
24518;DHT22;12678;51.336;12.406;2023-02-24T01:31:18;8.20;99.90
24518;DHT22;12678;51.336;12.406;2023-02-24T01:33:45;8.20;99.90
24518;DHT22;12678;51.336;12.406;2023-02-24T01:36:32;8.20;99.90
24518;DHT22;12678;51.336;12.406;2023-02-24T01:38:59;8.10;99.90
24518;DHT22;12678;51.336;12.406;2023-02-24T01:41:25;8.10;99.90
24518;DHT22;12678;51.336;12.406;2023-02-24T01:44:03;8.10;99.90
24518;DHT22;12678;51.336;12.406;2023-02-24T01:46:35;8.10;99.90
24518;DHT22;12678;51.336;12.406;2023-02-24T01:54:19;8.10;99.90
24518;DHT22;12678;51.336;12.406;2023-02-24T01:56:50;8.10;99.90
24518;DHT22;12678;51.336;12.406;2023-02-24T01:59:16;8.10;99.90
24518;DHT22;12678;51.336;12.406;2023-02-24T02:01:43;8.00;99.90
24518;DHT22;12678;51.336;12.406;2023-02-24T02:04:27;7.90;99.90
24518;DHT22;12678;51.336;12.406;2023-02-24T02:06:56;8.00;99.90
24518;DHT22;12678;51.336;12.406;2023-02-24T02:09:22;8.00;99.90
24518;DHT22;12678;51.336;12.406;2023-02-24T02:11:48;8.00;99.90
24518;DHT22;12678;51.336;12.406;2023-02-24T02:14:19;8.00;99.90
24518;DHT22;12678;51.336;12.406;2023-02-24T02:26:35;8.00;99.90
24518;DHT22;12678;51.336;12.406;2023-02-24T02:31:46;7.70;99.90
24518;DHT22;12678;51.336;12.406;2023-02-24T02:40:03;7.40;99.90
24518;DHT22;12678;51.336;12.406;2023-02-24T02:42:43;7.30;99.90
24518;DHT22;12678;51.336;12.406;2023-02-24T02:47:58;7.10;99.90
24518;DHT22;12678;51.336;12.406;2023-02-24T02:53:27;6.90;99.90
24518;DHT22;12678;51.336;12.406;2023-02-24T02:56:11;6.80;99.90
24518;DHT22;12678;51.336;12.406;2023-02-24T02:58:44;6.80;99.90
24518;DHT22;12678;51.336;12.406;2023-02-24T03:01:14;6.70;99.90
24518;DHT22;12678;51.336;12.406;2023-02-24T03:03:48;6.60;99.90
24518;DHT22;12678;51.336;12.406;2023-02-24T03:06:26;6.60;99.90
24518;DHT22;12678;51.336;12.406;2023-02-24T03:09:13;6.60;99.90
24518;DHT22;12678;51.336;12.406;2023-02-24T03:11:42;6.50;99.90
24518;DHT22;12678;51.336;12.406;2023-02-24T03:14:10;6.50;99.90
24518;DHT22;12678;51.336;12.406;2023-02-24T03:16:42;6.50;99.90
24518;DHT22;12678;51.336;12.406;2023-02-24T03:19:11;6.50;99.90
24518;DHT22;12678;51.336;12.406;2023-02-24T03:21:43;6.50;99.90
24518;DHT22;12678;51.336;12.406;2023-02-24T03:24:12;6.50;99.90
24518;DHT22;12678;51.336;12.406;2023-02-24T03:26:46;6.50;99.90
24518;DHT22;12678;51.336;12.406;2023-02-24T03:29:36;6.50;99.90
24518;DHT22;12678;51.336;12.406;2023-02-24T03:37:07;6.40;99.90
24518;DHT22;12678;51.336;12.406;2023-02-24T03:39:33;6.30;99.90
24518;DHT22;12678;51.336;12.406;2023-02-24T03:42:12;6.30;99.90
24518;DHT22;12678;51.336;12.406;2023-02-24T03:44:39;6.30;99.90
24518;DHT22;12678;51.336;12.406;2023-02-24T03:47:05;6.20;99.90
24518;DHT22;12678;51.336;12.406;2023-02-24T03:49:34;6.20;99.90
24518;DHT22;12678;51.336;12.406;2023-02-24T04:00:56;6.30;99.90
24518;DHT22;12678;51.336;12.406;2023-02-24T04:08:55;6.30;99.90
24518;DHT22;12678;51.336;12.406;2023-02-24T04:11:51;6.40;99.90
24518;DHT22;12678;51.336;12.406;2023-02-24T04:14:21;6.20;99.90
24518;DHT22;12678;51.336;12.406;2023-02-24T04:16:55;6.30;99.90
24518;DHT22;12678;51.336;12.406;2023-02-24T04:19:27;6.30;99.90
24518;DHT22;12678;51.336;12.406;2023-02-24T04:21:54;6.30;99.90
24518;DHT22;12678;51.336;12.406;2023-02-24T04:24:22;6.20;99.90
24518;DHT22;12678;51.336;12.406;2023-02-24T04:26:53;6.20;99.90
24518;DHT22;12678;51.336;12.406;2023-02-24T04:29:24;6.20;99.90
24518;DHT22;12678;51.336;12.406;2023-02-24T04:32:06;6.30;99.90
24518;DHT22;12678;51.336;12.406;2023-02-24T04:34:33;6.40;99.90
24518;DHT22;12678;51.336;12.406;2023-02-24T04:36:59;6.30;99.90
24518;DHT22;12678;51.336;12.406;2023-02-24T04:39:27;6.40;99.90
24518;DHT22;12678;51.336;12.406;2023-02-24T04:41:54;6.40;99.90
24518;DHT22;12678;51.336;12.406;2023-02-24T04:44:22;6.30;99.90
24518;DHT22;12678;51.336;12.406;2023-02-24T04:46:49;6.30;99.90
24518;DHT22;12678;51.336;12.406;2023-02-24T04:49:15;6.30;99.90
24518;DHT22;12678;51.336;12.406;2023-02-24T04:51:42;6.20;99.90
24518;DHT22;12678;51.336;12.406;2023-02-24T04:54:13;6.20;99.90
24518;DHT22;12678;51.336;12.406;2023-02-24T04:56:45;6.30;99.90
24518;DHT22;12678;51.336;12.406;2023-02-24T04:59:12;6.10;99.90
24518;DHT22;12678;51.336;12.406;2023-02-24T05:01:39;6.20;99.90
24518;DHT22;12678;51.336;12.406;2023-02-24T05:04:07;6.10;99.90
24518;DHT22;12678;51.336;12.406;2023-02-24T05:06:33;6.10;99.90
24518;DHT22;12678;51.336;12.406;2023-02-24T05:09:00;6.10;99.90
24518;DHT22;12678;51.336;12.406;2023-02-24T05:11:26;6.00;99.90
24518;DHT22;12678;51.336;12.406;2023-02-24T05:13:59;5.90;99.90
24518;DHT22;12678;51.336;12.406;2023-02-24T05:16:25;5.90;99.90
24518;DHT22;12678;51.336;12.406;2023-02-24T05:18:53;5.90;99.90
24518;DHT22;12678;51.336;12.406;2023-02-24T05:21:39;5.90;99.90
24518;DHT22;12678;51.336;12.406;2023-02-24T05:24:06;5.90;99.90
24518;DHT22;12678;51.336;12.406;2023-02-24T05:26:35;5.90;99.90
24518;DHT22;12678;51.336;12.406;2023-02-24T05:29:03;5.90;99.90
24518;DHT22;12678;51.336;12.406;2023-02-24T05:31:29;5.90;99.90
24518;DHT22;12678;51.336;12.406;2023-02-24T05:33:58;5.90;99.90
24518;DHT22;12678;51.336;12.406;2023-02-24T05:36:26;5.90;99.90
24518;DHT22;12678;51.336;12.406;2023-02-24T05:38:53;5.90;99.90
24518;DHT22;12678;51.336;12.406;2023-02-24T05:41:48;5.90;99.90
24518;DHT22;12678;51.336;12.406;2023-02-24T05:44:18;5.80;99.90
24518;DHT22;12678;51.336;12.406;2023-02-24T05:46:51;5.90;99.90
24518;DHT22;12678;51.336;12.406;2023-02-24T05:49:22;5.90;99.90
24518;DHT22;12678;51.336;12.406;2023-02-24T05:51:52;6.00;99.90
24518;DHT22;12678;51.336;12.406;2023-02-24T05:54:29;6.00;99.90
24518;DHT22;12678;51.336;12.406;2023-02-24T05:57:06;6.00;99.90
24518;DHT22;12678;51.336;12.406;2023-02-24T05:59:34;5.90;99.90
24518;DHT22;12678;51.336;12.406;2023-02-24T06:02:06;5.90;99.90
24518;DHT22;12678;51.336;12.406;2023-02-24T06:04:39;5.90;99.90
24518;DHT22;12678;51.336;12.406;2023-02-24T06:07:12;5.90;99.90
24518;DHT22;12678;51.336;12.406;2023-02-24T06:09:39;5.80;99.90
24518;DHT22;12678;51.336;12.406;2023-02-24T06:12:08;5.90;99.90
24518;DHT22;12678;51.336;12.406;2023-02-24T06:14:37;5.80;99.90
24518;DHT22;12678;51.336;12.406;2023-02-24T06:17:03;5.80;99.90
24518;DHT22;12678;51.336;12.406;2023-02-24T06:19:29;5.80;99.90
24518;DHT22;12678;51.336;12.406;2023-02-24T06:21:57;5.80;99.90
24518;DHT22;12678;51.336;12.406;2023-02-24T06:24:29;5.90;99.90
24518;DHT22;12678;51.336;12.406;2023-02-24T06:26:57;5.80;99.90
24518;DHT22;12678;51.336;12.406;2023-02-24T06:29:34;5.90;99.90
24518;DHT22;12678;51.336;12.406;2023-02-24T06:32:01;5.90;99.90
24518;DHT22;12678;51.336;12.406;2023-02-24T06:34:33;5.90;99.90
24518;DHT22;12678;51.336;12.406;2023-02-24T06:36:59;5.90;99.90
24518;DHT22;12678;51.336;12.406;2023-02-24T06:39:25;5.90;99.90
24518;DHT22;12678;51.336;12.406;2023-02-24T06:41:50;5.80;99.90
24518;DHT22;12678;51.336;12.406;2023-02-24T06:44:18;5.80;99.90
24518;DHT22;12678;51.336;12.406;2023-02-24T06:46:44;6.00;99.90
24518;DHT22;12678;51.336;12.406;2023-02-24T06:49:11;5.90;99.90
24518;DHT22;12678;51.336;12.406;2023-02-24T06:51:37;6.00;99.90
24518;DHT22;12678;51.336;12.406;2023-02-24T06:54:04;5.90;99.90
24518;DHT22;12678;51.336;12.406;2023-02-24T06:56:30;5.90;99.90
24518;DHT22;12678;51.336;12.406;2023-02-24T06:59:03;5.90;99.90
24518;DHT22;12678;51.336;12.406;2023-02-24T07:01:31;5.90;99.90
24518;DHT22;12678;51.336;12.406;2023-02-24T07:03:59;5.80;99.90
24518;DHT22;12678;51.336;12.406;2023-02-24T07:06:38;5.90;99.90
24518;DHT22;12678;51.336;12.406;2023-02-24T07:09:12;5.90;99.90
24518;DHT22;12678;51.336;12.406;2023-02-24T07:11:40;5.90;99.90
24518;DHT22;12678;51.336;12.406;2023-02-24T07:14:08;5.90;99.90
24518;DHT22;12678;51.336;12.406;2023-02-24T07:16:34;5.90;99.90
24518;DHT22;12678;51.336;12.406;2023-02-24T07:19:03;5.90;99.90
24518;DHT22;12678;51.336;12.406;2023-02-24T07:21:30;5.90;99.90
24518;DHT22;12678;51.336;12.406;2023-02-24T07:24:04;5.80;99.90
24518;DHT22;12678;51.336;12.406;2023-02-24T07:26:30;6.00;99.90
24518;DHT22;12678;51.336;12.406;2023-02-24T07:28:56;6.00;99.90
24518;DHT22;12678;51.336;12.406;2023-02-24T07:31:23;6.10;99.90
24518;DHT22;12678;51.336;12.406;2023-02-24T07:33:53;6.10;99.90
24518;DHT22;12678;51.336;12.406;2023-02-24T07:36:21;6.00;99.90
24518;DHT22;12678;51.336;12.406;2023-02-24T07:38:55;6.00;99.90
24518;DHT22;12678;51.336;12.406;2023-02-24T07:41:23;6.00;99.90
24518;DHT22;12678;51.336;12.406;2023-02-24T07:43:52;5.90;99.90
24518;DHT22;12678;51.336;12.406;2023-02-24T07:46:23;5.90;99.90
24518;DHT22;12678;51.336;12.406;2023-02-24T07:48:51;6.00;99.90
24518;DHT22;12678;51.336;12.406;2023-02-24T07:51:22;6.00;99.90
24518;DHT22;12678;51.336;12.406;2023-02-24T07:53:56;5.90;99.90
24518;DHT22;12678;51.336;12.406;2023-02-24T07:56:24;5.90;99.90
24518;DHT22;12678;51.336;12.406;2023-02-24T07:58:56;6.00;99.90
24518;DHT22;12678;51.336;12.406;2023-02-24T08:01:29;6.00;99.90
24518;DHT22;12678;51.336;12.406;2023-02-24T08:03:59;6.00;99.90
24518;DHT22;12678;51.336;12.406;2023-02-24T08:06:37;6.00;99.90
24518;DHT22;12678;51.336;12.406;2023-02-24T08:09:06;5.90;99.90
24518;DHT22;12678;51.336;12.406;2023-02-24T08:11:48;5.90;99.90
24518;DHT22;12678;51.336;12.406;2023-02-24T08:14:22;6.00;99.90
24518;DHT22;12678;51.336;12.406;2023-02-24T08:16:50;6.10;99.90
24518;DHT22;12678;51.336;12.406;2023-02-24T08:19:19;6.10;99.90
24518;DHT22;12678;51.336;12.406;2023-02-24T08:21:47;6.30;99.90
24518;DHT22;12678;51.336;12.406;2023-02-24T08:24:17;6.40;99.90
24518;DHT22;12678;51.336;12.406;2023-02-24T08:26:47;6.40;99.90
24518;DHT22;12678;51.336;12.406;2023-02-24T08:29:28;6.40;99.90
24518;DHT22;12678;51.336;12.406;2023-02-24T08:31:56;6.50;99.90
24518;DHT22;12678;51.336;12.406;2023-02-24T08:34:22;6.70;99.90
24518;DHT22;12678;51.336;12.406;2023-02-24T08:36:51;6.80;99.90
24518;DHT22;12678;51.336;12.406;2023-02-24T08:39:20;6.80;99.90
24518;DHT22;12678;51.336;12.406;2023-02-24T08:41:47;6.90;99.90
24518;DHT22;12678;51.336;12.406;2023-02-24T08:44:17;7.00;99.90
24518;DHT22;12678;51.336;12.406;2023-02-24T08:46:46;7.00;99.90
24518;DHT22;12678;51.336;12.406;2023-02-24T08:49:17;7.10;99.90
24518;DHT22;12678;51.336;12.406;2023-02-24T08:51:45;7.20;99.90
24518;DHT22;12678;51.336;12.406;2023-02-24T08:54:17;7.30;99.90
24518;DHT22;12678;51.336;12.406;2023-02-24T08:56:45;7.40;99.90
24518;DHT22;12678;51.336;12.406;2023-02-24T08:59:16;7.30;99.90
24518;DHT22;12678;51.336;12.406;2023-02-24T09:02:12;7.30;99.90
24518;DHT22;12678;51.336;12.406;2023-02-24T09:04:53;7.40;99.90
24518;DHT22;12678;51.336;12.406;2023-02-24T09:07:22;7.50;99.90
24518;DHT22;12678;51.336;12.406;2023-02-24T09:09:49;7.70;99.90
24518;DHT22;12678;51.336;12.406;2023-02-24T09:12:15;7.70;99.90
24518;DHT22;12678;51.336;12.406;2023-02-24T09:14:59;7.70;99.90
24518;DHT22;12678;51.336;12.406;2023-02-24T09:17:28;7.70;99.90
24518;DHT22;12678;51.336;12.406;2023-02-24T09:20:12;7.70;99.90
24518;DHT22;12678;51.336;12.406;2023-02-24T09:22:57;7.60;99.90
24518;DHT22;12678;51.336;12.406;2023-02-24T09:25:34;7.60;99.90
24518;DHT22;12678;51.336;12.406;2023-02-24T09:28:14;7.60;99.90
24518;DHT22;12678;51.336;12.406;2023-02-24T09:30:58;7.70;99.90
24518;DHT22;12678;51.336;12.406;2023-02-24T09:33:33;7.70;99.90
24518;DHT22;12678;51.336;12.406;2023-02-24T09:38:43;7.70;99.90
24518;DHT22;12678;51.336;12.406;2023-02-24T09:41:44;7.70;99.90
24518;DHT22;12678;51.336;12.406;2023-02-24T09:44:49;7.60;99.90
24518;DHT22;12678;51.336;12.406;2023-02-24T09:52:46;7.70;99.90
24518;DHT22;12678;51.336;12.406;2023-02-24T09:55:20;7.70;99.90
24518;DHT22;12678;51.336;12.406;2023-02-24T09:57:58;7.70;99.90
24518;DHT22;12678;51.336;12.406;2023-02-24T10:00:59;7.80;99.90
24518;DHT22;12678;51.336;12.406;2023-02-24T10:06:26;8.00;99.90
24518;DHT22;12678;51.336;12.406;2023-02-24T10:12:01;7.90;99.90
24518;DHT22;12678;51.336;12.406;2023-02-24T10:17:22;7.80;99.90
24518;DHT22;12678;51.336;12.406;2023-02-24T10:19:56;7.70;99.90
24518;DHT22;12678;51.336;12.406;2023-02-24T10:22:30;7.80;99.90
24518;DHT22;12678;51.336;12.406;2023-02-24T10:27:42;7.90;99.90
24518;DHT22;12678;51.336;12.406;2023-02-24T10:33:33;8.10;99.90
24518;DHT22;12678;51.336;12.406;2023-02-24T10:36:08;8.30;99.90
24518;DHT22;12678;51.336;12.406;2023-02-24T10:38:36;8.50;99.90
24518;DHT22;12678;51.336;12.406;2023-02-24T10:41:02;8.40;99.90
24518;DHT22;12678;51.336;12.406;2023-02-24T10:43:32;8.40;99.90
24518;DHT22;12678;51.336;12.406;2023-02-24T10:46:00;8.50;99.90
24518;DHT22;12678;51.336;12.406;2023-02-24T10:48:41;8.40;99.90
24518;DHT22;12678;51.336;12.406;2023-02-24T10:51:13;8.50;99.90
24518;DHT22;12678;51.336;12.406;2023-02-24T10:53:48;8.40;99.90
24518;DHT22;12678;51.336;12.406;2023-02-24T10:56:38;8.40;99.90
24518;DHT22;12678;51.336;12.406;2023-02-24T10:59:13;8.30;99.90
24518;DHT22;12678;51.336;12.406;2023-02-24T11:02:02;8.40;99.90
24518;DHT22;12678;51.336;12.406;2023-02-24T11:04:37;8.50;99.90
24518;DHT22;12678;51.336;12.406;2023-02-24T11:07:29;8.50;99.90
24518;DHT22;12678;51.336;12.406;2023-02-24T11:10:17;8.60;99.90
24518;DHT22;12678;51.336;12.406;2023-02-24T11:12:51;8.80;99.90
24518;DHT22;12678;51.336;12.406;2023-02-24T11:15:46;8.90;99.90
24518;DHT22;12678;51.336;12.406;2023-02-24T11:18:32;9.00;99.90
24518;DHT22;12678;51.336;12.406;2023-02-24T11:21:03;9.00;99.90
24518;DHT22;12678;51.336;12.406;2023-02-24T11:23:34;9.00;99.90
24518;DHT22;12678;51.336;12.406;2023-02-24T11:26:06;9.00;99.90
24518;DHT22;12678;51.336;12.406;2023-02-24T11:31:46;9.20;99.90
24518;DHT22;12678;51.336;12.406;2023-02-24T11:34:42;9.20;99.90
24518;DHT22;12678;51.336;12.406;2023-02-24T11:42:26;9.20;99.90
24518;DHT22;12678;51.336;12.406;2023-02-24T11:45:01;9.00;99.90
24518;DHT22;12678;51.336;12.406;2023-02-24T11:47:31;9.00;99.90
24518;DHT22;12678;51.336;12.406;2023-02-24T11:53:31;9.00;99.90
24518;DHT22;12678;51.336;12.406;2023-02-24T11:56:06;8.90;99.90
24518;DHT22;12678;51.336;12.406;2023-02-24T12:01:21;8.90;99.90
24518;DHT22;12678;51.336;12.406;2023-02-24T12:06:51;8.80;99.90
24518;DHT22;12678;51.336;12.406;2023-02-24T12:09:21;8.90;99.90
24518;DHT22;12678;51.336;12.406;2023-02-24T12:14:35;8.90;99.90
24518;DHT22;12678;51.336;12.406;2023-02-24T12:19:56;8.90;99.90
24518;DHT22;12678;51.336;12.406;2023-02-24T12:22:27;8.90;99.90
24518;DHT22;12678;51.336;12.406;2023-02-24T12:24:55;8.80;99.90
24518;DHT22;12678;51.336;12.406;2023-02-24T12:27:34;8.70;99.90
24518;DHT22;12678;51.336;12.406;2023-02-24T12:35:58;8.60;99.90
24518;DHT22;12678;51.336;12.406;2023-02-24T12:38:57;8.60;99.90
24518;DHT22;12678;51.336;12.406;2023-02-24T12:44:45;8.60;99.90
24518;DHT22;12678;51.336;12.406;2023-02-24T12:52:27;8.70;99.90
24518;DHT22;12678;51.336;12.406;2023-02-24T13:00:36;8.50;99.90
24518;DHT22;12678;51.336;12.406;2023-02-24T13:14:13;8.30;99.90
24518;DHT22;12678;51.336;12.406;2023-02-24T13:16:41;8.30;99.90
24518;DHT22;12678;51.336;12.406;2023-02-24T13:24:54;8.20;99.90
24518;DHT22;12678;51.336;12.406;2023-02-24T13:27:27;8.20;99.90
24518;DHT22;12678;51.336;12.406;2023-02-24T13:32:34;8.00;99.90
24518;DHT22;12678;51.336;12.406;2023-02-24T13:37:48;7.70;99.90
24518;DHT22;12678;51.336;12.406;2023-02-24T13:42:55;7.50;99.90
24518;DHT22;12678;51.336;12.406;2023-02-24T13:45:21;7.40;99.90
24518;DHT22;12678;51.336;12.406;2023-02-24T13:58:48;7.20;99.90
24518;DHT22;12678;51.336;12.406;2023-02-24T14:01:18;7.10;99.90
24518;DHT22;12678;51.336;12.406;2023-02-24T14:06:29;7.00;99.90
24518;DHT22;12678;51.336;12.406;2023-02-24T14:08:58;6.90;99.90
24518;DHT22;12678;51.336;12.406;2023-02-24T14:11:27;6.80;99.90
24518;DHT22;12678;51.336;12.406;2023-02-24T14:13:55;6.80;99.90
24518;DHT22;12678;51.336;12.406;2023-02-24T14:16:25;6.80;99.90
24518;DHT22;12678;51.336;12.406;2023-02-24T14:18:56;6.60;99.90
24518;DHT22;12678;51.336;12.406;2023-02-24T14:21:25;6.50;99.90
24518;DHT22;12678;51.336;12.406;2023-02-24T14:26:21;6.30;99.90
24518;DHT22;12678;51.336;12.406;2023-02-24T14:28:55;6.30;99.90
24518;DHT22;12678;51.336;12.406;2023-02-24T14:31:23;6.30;99.90
24518;DHT22;12678;51.336;12.406;2023-02-24T14:33:55;6.30;99.90
24518;DHT22;12678;51.336;12.406;2023-02-24T14:36:22;6.30;99.90
24518;DHT22;12678;51.336;12.406;2023-02-24T14:41:33;6.20;99.90
24518;DHT22;12678;51.336;12.406;2023-02-24T14:44:07;6.20;99.90
24518;DHT22;12678;51.336;12.406;2023-02-24T14:46:55;6.10;99.90
24518;DHT22;12678;51.336;12.406;2023-02-24T14:49:27;6.00;99.90
24518;DHT22;12678;51.336;12.406;2023-02-24T14:52:08;6.10;99.90
24518;DHT22;12678;51.336;12.406;2023-02-24T14:54:38;6.00;99.90
24518;DHT22;12678;51.336;12.406;2023-02-24T14:57:10;5.80;99.90
24518;DHT22;12678;51.336;12.406;2023-02-24T14:59:38;5.80;99.90
24518;DHT22;12678;51.336;12.406;2023-02-24T15:02:14;5.80;99.90
24518;DHT22;12678;51.336;12.406;2023-02-24T15:04:41;5.90;99.90
24518;DHT22;12678;51.336;12.406;2023-02-24T15:07:17;5.90;99.90
24518;DHT22;12678;51.336;12.406;2023-02-24T15:09:47;5.80;99.90
24518;DHT22;12678;51.336;12.406;2023-02-24T15:12:31;5.80;99.90
24518;DHT22;12678;51.336;12.406;2023-02-24T15:15:24;5.80;99.90
24518;DHT22;12678;51.336;12.406;2023-02-24T15:17:53;5.80;99.90
24518;DHT22;12678;51.336;12.406;2023-02-24T15:20:30;5.60;99.90
24518;DHT22;12678;51.336;12.406;2023-02-24T15:22:56;5.60;99.90
24518;DHT22;12678;51.336;12.406;2023-02-24T15:25:28;5.70;99.90
24518;DHT22;12678;51.336;12.406;2023-02-24T15:28:00;5.70;99.90
24518;DHT22;12678;51.336;12.406;2023-02-24T15:30:30;5.60;99.90
24518;DHT22;12678;51.336;12.406;2023-02-24T15:33:22;5.50;99.90
24518;DHT22;12678;51.336;12.406;2023-02-24T15:35:50;5.50;99.90
24518;DHT22;12678;51.336;12.406;2023-02-24T15:38:24;5.40;99.90
24518;DHT22;12678;51.336;12.406;2023-02-24T15:41:04;5.30;99.90
24518;DHT22;12678;51.336;12.406;2023-02-24T15:43:43;5.30;99.90
24518;DHT22;12678;51.336;12.406;2023-02-24T15:46:30;5.30;99.90
24518;DHT22;12678;51.336;12.406;2023-02-24T15:48:56;5.30;99.90
24518;DHT22;12678;51.336;12.406;2023-02-24T15:51:44;5.40;99.90
24518;DHT22;12678;51.336;12.406;2023-02-24T15:54:48;5.40;99.90
24518;DHT22;12678;51.336;12.406;2023-02-24T15:57:14;5.20;99.90
24518;DHT22;12678;51.336;12.406;2023-02-24T15:59:41;5.30;99.90
24518;DHT22;12678;51.336;12.406;2023-02-24T16:02:15;5.20;99.90
24518;DHT22;12678;51.336;12.406;2023-02-24T16:04:42;5.20;99.90
24518;DHT22;12678;51.336;12.406;2023-02-24T16:07:13;5.20;99.90
24518;DHT22;12678;51.336;12.406;2023-02-24T16:09:40;5.20;99.90
24518;DHT22;12678;51.336;12.406;2023-02-24T16:12:23;5.10;99.90
24518;DHT22;12678;51.336;12.406;2023-02-24T16:14:53;5.10;99.90
24518;DHT22;12678;51.336;12.406;2023-02-24T16:17:30;5.20;99.90
24518;DHT22;12678;51.336;12.406;2023-02-24T16:19:58;5.20;99.90
24518;DHT22;12678;51.336;12.406;2023-02-24T16:22:24;5.20;99.90
24518;DHT22;12678;51.336;12.406;2023-02-24T16:24:50;5.20;99.90
24518;DHT22;12678;51.336;12.406;2023-02-24T16:27:18;5.20;99.90
24518;DHT22;12678;51.336;12.406;2023-02-24T16:29:43;5.10;99.90
24518;DHT22;12678;51.336;12.406;2023-02-24T16:32:11;5.10;99.90
24518;DHT22;12678;51.336;12.406;2023-02-24T16:34:37;5.00;99.90
24518;DHT22;12678;51.336;12.406;2023-02-24T16:37:02;5.10;99.90
24518;DHT22;12678;51.336;12.406;2023-02-24T16:39:28;5.10;99.90
24518;DHT22;12678;51.336;12.406;2023-02-24T16:41:54;5.10;99.90
24518;DHT22;12678;51.336;12.406;2023-02-24T16:44:20;5.10;99.90
24518;DHT22;12678;51.336;12.406;2023-02-24T16:46:47;5.00;99.90
24518;DHT22;12678;51.336;12.406;2023-02-24T16:49:17;5.10;99.90
24518;DHT22;12678;51.336;12.406;2023-02-24T16:51:45;5.10;99.90
24518;DHT22;12678;51.336;12.406;2023-02-24T16:54:10;5.00;99.90
24518;DHT22;12678;51.336;12.406;2023-02-24T16:56:36;4.90;99.90
24518;DHT22;12678;51.336;12.406;2023-02-24T16:59:02;4.80;99.90
24518;DHT22;12678;51.336;12.406;2023-02-24T17:01:28;4.80;99.90
24518;DHT22;12678;51.336;12.406;2023-02-24T17:03:53;4.80;99.90
24518;DHT22;12678;51.336;12.406;2023-02-24T17:06:19;4.80;99.90
24518;DHT22;12678;51.336;12.406;2023-02-24T17:08:45;4.80;99.90
24518;DHT22;12678;51.336;12.406;2023-02-24T17:11:14;4.80;99.90
24518;DHT22;12678;51.336;12.406;2023-02-24T17:13:40;4.80;99.90
24518;DHT22;12678;51.336;12.406;2023-02-24T17:16:06;4.80;99.90
24518;DHT22;12678;51.336;12.406;2023-02-24T17:18:32;4.80;99.90
24518;DHT22;12678;51.336;12.406;2023-02-24T17:20:57;4.70;99.90
24518;DHT22;12678;51.336;12.406;2023-02-24T17:23:24;4.60;99.90
24518;DHT22;12678;51.336;12.406;2023-02-24T17:25:52;4.60;99.90
24518;DHT22;12678;51.336;12.406;2023-02-24T17:28:19;4.50;99.90
24518;DHT22;12678;51.336;12.406;2023-02-24T17:30:45;4.50;99.90
24518;DHT22;12678;51.336;12.406;2023-02-24T17:33:11;4.50;99.90
24518;DHT22;12678;51.336;12.406;2023-02-24T17:35:39;4.40;99.90
24518;DHT22;12678;51.336;12.406;2023-02-24T17:38:12;4.30;99.90
24518;DHT22;12678;51.336;12.406;2023-02-24T17:40:40;4.40;99.90
24518;DHT22;12678;51.336;12.406;2023-02-24T17:43:06;4.50;99.90
24518;DHT22;12678;51.336;12.406;2023-02-24T17:45:31;4.40;99.90
24518;DHT22;12678;51.336;12.406;2023-02-24T17:47:58;4.50;99.90
24518;DHT22;12678;51.336;12.406;2023-02-24T17:50:24;4.40;99.90
24518;DHT22;12678;51.336;12.406;2023-02-24T17:52:49;4.40;99.90
24518;DHT22;12678;51.336;12.406;2023-02-24T17:55:15;4.40;99.90
24518;DHT22;12678;51.336;12.406;2023-02-24T17:57:41;4.40;99.90
24518;DHT22;12678;51.336;12.406;2023-02-24T18:00:09;4.20;99.90
24518;DHT22;12678;51.336;12.406;2023-02-24T18:02:34;4.40;99.90
24518;DHT22;12678;51.336;12.406;2023-02-24T18:05:00;4.40;99.90
24518;DHT22;12678;51.336;12.406;2023-02-24T18:07:27;4.40;99.90
24518;DHT22;12678;51.336;12.406;2023-02-24T18:09:52;4.50;99.90
24518;DHT22;12678;51.336;12.406;2023-02-24T18:12:18;4.60;99.90
24518;DHT22;12678;51.336;12.406;2023-02-24T18:14:46;4.50;99.90
24518;DHT22;12678;51.336;12.406;2023-02-24T18:17:12;4.50;99.90
24518;DHT22;12678;51.336;12.406;2023-02-24T18:19:38;4.50;99.90
24518;DHT22;12678;51.336;12.406;2023-02-24T18:22:04;4.50;99.90
24518;DHT22;12678;51.336;12.406;2023-02-24T18:24:30;4.50;99.90
24518;DHT22;12678;51.336;12.406;2023-02-24T18:26:55;4.60;99.90
24518;DHT22;12678;51.336;12.406;2023-02-24T18:29:21;4.70;99.90
24518;DHT22;12678;51.336;12.406;2023-02-24T18:31:47;4.70;99.90
24518;DHT22;12678;51.336;12.406;2023-02-24T18:34:18;4.70;99.90
24518;DHT22;12678;51.336;12.406;2023-02-24T18:36:44;4.80;99.90